Time;durP1;ratioP1;P1;durP2;ratioP2;P2;SDS_P1;SDS_P2;PMS_P1;PMS_P2;Temp;Humidity;BMP_temperature;BMP_pressure;BME280_temperature;BME280_humidity;BME280_pressure;Samples;Min_cycle;Max_cycle;Signal;HPM_P1;HPM_P2
2022/02/07 00:00:14;;;;;;;0.75;0.75;;;-3.60;99.90;;;;;;5041577;28;20289;-74
2022/02/07 00:03:03;;;;;;;0.70;0.70;;;-3.60;99.90;;;;;;5038145;28;20198;-75
2022/02/07 00:05:29;;;;;;;0.80;0.80;;;-3.50;99.90;;;;;;5038541;28;20212;-74
2022/02/07 00:07:56;;;;;;;0.80;0.80;;;-3.60;99.90;;;;;;5039416;28;20212;-75
2022/02/07 00:10:22;;;;;;;0.80;0.80;;;-3.70;99.90;;;;;;5037735;28;20202;-74
2022/02/07 00:12:48;;;;;;;0.80;0.80;;;-3.80;99.90;;;;;;5038335;28;20189;-74
2022/02/07 00:15:15;;;;;;;0.80;0.80;;;-3.80;99.90;;;;;;5040276;28;20206;-74
2022/02/07 00:17:41;;;;;;;0.80;0.80;;;-3.60;99.90;;;;;;5038459;28;20229;-75
2022/02/07 00:20:13;;;;;;;0.80;0.80;;;-3.50;99.90;;;;;;5033194;28;20241;-75
2022/02/07 00:22:39;;;;;;;0.80;0.80;;;-3.50;99.90;;;;;;5028603;28;20209;-75
2022/02/07 00:25:05;;;;;;;1.48;1.38;;;-3.60;99.90;;;;;;5042546;28;20628;-75
2022/02/07 00:27:31;;;;;;;0.90;0.90;;;-3.50;99.90;;;;;;5036918;28;20217;-74
2022/02/07 00:29:57;;;;;;;0.77;0.77;;;-3.60;99.90;;;;;;5043592;28;20198;-75
2022/02/07 00:32:22;;;;;;;0.80;0.80;;;-3.70;99.90;;;;;;5033345;28;20292;-75
2022/02/07 00:34:48;;;;;;;3.85;1.20;;;-3.60;99.90;;;;;;5035830;28;20674;-75
2022/02/07 00:37:14;;;;;;;0.80;0.80;;;-3.50;99.90;;;;;;5045449;28;20213;-74
2022/02/07 00:39:51;;;;;;;0.77;0.77;;;-3.50;99.90;;;;;;5045375;28;20203;-75
2022/02/07 00:42:26;;;;;;;0.80;0.80;;;-3.50;99.90;;;;;;5032868;28;20207;-74
2022/02/07 00:44:54;;;;;;;0.80;0.80;;;-3.50;99.90;;;;;;5046236;28;20198;-74
2022/02/07 00:47:20;;;;;;;1.13;1.13;;;-3.40;99.90;;;;;;5032152;28;20202;-74
2022/02/07 00:49:45;;;;;;;0.80;0.80;;;-3.50;99.90;;;;;;5048264;28;20677;-73
2022/02/07 00:52:11;;;;;;;0.70;0.70;;;-3.50;99.90;;;;;;5048594;28;20211;-74
2022/02/07 00:54:37;;;;;;;0.80;0.80;;;-3.60;99.90;;;;;;5049245;28;20201;-74
2022/02/07 00:57:03;;;;;;;0.73;0.73;;;-3.60;99.90;;;;;;5049051;28;20279;-74
2022/02/07 00:59:28;;;;;;;0.70;0.70;;;-3.60;99.90;;;;;;5045068;28;20237;-74
2022/02/07 01:01:54;;;;;;;0.73;0.73;;;-3.70;99.90;;;;;;5047354;28;20576;-74
2022/02/07 01:04:20;;;;;;;0.77;0.77;;;-3.70;99.90;;;;;;5032368;28;20613;-74
2022/02/07 01:06:46;;;;;;;0.70;0.70;;;-3.80;99.90;;;;;;5044688;28;20214;-75
2022/02/07 01:09:19;;;;;;;0.80;0.80;;;-3.90;99.90;;;;;;5037429;28;20289;-75
2022/02/07 01:14:53;;;;;;;0.80;0.80;;;-4.00;99.90;;;;;;5046164;28;20284;-74
2022/02/07 01:52:50;;;;;;;0.80;0.80;;;-4.00;99.90;;;;;;5044326;28;20247;-75
2022/02/07 01:57:45;;;;;;;0.80;0.80;;;-3.90;99.90;;;;;;5040021;28;20287;-74
2022/02/07 02:00:12;;;;;;;0.80;0.80;;;-3.90;99.90;;;;;;5042812;28;20665;-75
2022/02/07 02:02:37;;;;;;;0.80;0.80;;;-3.80;99.90;;;;;;5048382;28;20266;-70
2022/02/07 02:05:03;;;;;;;0.80;0.80;;;-3.90;99.90;;;;;;5047887;28;20590;-70
2022/02/07 02:07:29;;;;;;;0.90;0.90;;;-3.90;99.90;;;;;;5048718;28;20756;-70
2022/02/07 02:09:55;;;;;;;0.80;0.80;;;-3.90;99.90;;;;;;5050079;28;20289;-70
2022/02/07 02:12:24;;;;;;;0.80;0.80;;;-3.90;99.90;;;;;;5042715;28;20201;-71
2022/02/07 02:15:14;;;;;;;0.80;0.80;;;-4.00;99.90;;;;;;5024938;28;20242;-72
2022/02/07 02:46:34;;;;;;;0.90;0.90;;;-4.40;99.90;;;;;;5048110;28;20676;-70
2022/02/07 02:49:02;;;;;;;0.70;0.70;;;-4.50;99.90;;;;;;5048335;28;20205;-71
2022/02/07 02:51:29;;;;;;;0.80;0.80;;;-4.60;99.90;;;;;;5045805;28;20326;-70
2022/02/07 02:53:55;;;;;;;0.75;0.75;;;-4.60;99.90;;;;;;5048273;28;20731;-70
2022/02/07 02:56:21;;;;;;;0.80;0.80;;;-4.50;99.90;;;;;;5047886;28;20243;-70
2022/02/07 02:58:47;;;;;;;0.80;0.80;;;-4.60;99.90;;;;;;5044326;28;20198;-71
2022/02/07 03:01:13;;;;;;;0.80;0.80;;;-4.50;99.90;;;;;;5033025;28;20210;-71
2022/02/07 03:03:39;;;;;;;1.13;1.13;;;-4.60;99.90;;;;;;5026031;28;20209;-70
2022/02/07 03:06:05;;;;;;;0.80;0.80;;;-4.50;99.90;;;;;;5048059;28;20668;-70
2022/02/07 03:08:32;;;;;;;0.80;0.80;;;-4.60;99.90;;;;;;5047906;28;20212;-70
2022/02/07 03:18:34;;;;;;;0.90;0.90;;;-4.70;99.90;;;;;;5018869;28;20212;-70
2022/02/07 03:21:00;;;;;;;0.90;0.90;;;-4.70;99.90;;;;;;5048794;28;20206;-71
2022/02/07 03:23:26;;;;;;;0.80;0.80;;;-4.70;99.90;;;;;;5048941;28;20205;-71
2022/02/07 03:25:53;;;;;;;0.80;0.80;;;-4.70;99.90;;;;;;5050248;28;20197;-71
2022/02/07 03:28:21;;;;;;;0.80;0.80;;;-4.80;99.90;;;;;;5048649;28;20212;-71
2022/02/07 03:30:47;;;;;;;0.77;0.77;;;-4.90;99.90;;;;;;5048084;28;20200;-71
2022/02/07 03:33:12;;;;;;;0.80;0.80;;;-4.80;99.90;;;;;;5048590;28;20574;-70
2022/02/07 03:35:38;;;;;;;0.80;0.80;;;-4.80;99.90;;;;;;5047456;28;20201;-71
2022/02/07 03:38:05;;;;;;;0.90;0.90;;;-4.80;99.90;;;;;;5048617;28;20200;-71
2022/02/07 03:40:32;;;;;;;0.80;0.80;;;-4.80;99.90;;;;;;5048500;28;20664;-71
2022/02/07 03:42:58;;;;;;;0.80;0.80;;;-4.90;99.90;;;;;;5047368;28;20201;-70
2022/02/07 03:45:23;;;;;;;0.80;0.80;;;-4.90;99.90;;;;;;5045854;28;20233;-70
2022/02/07 03:47:49;;;;;;;0.80;0.80;;;-4.90;99.90;;;;;;5046068;28;20240;-70
2022/02/07 03:50:15;;;;;;;0.73;0.73;;;-5.00;99.90;;;;;;5048387;28;20624;-71
2022/02/07 03:52:41;;;;;;;0.77;0.77;;;-5.10;99.90;;;;;;5048170;28;20201;-70
2022/02/07 03:55:08;;;;;;;0.80;0.80;;;-5.10;99.90;;;;;;5045029;28;20201;-70
2022/02/07 03:57:34;;;;;;;0.70;0.70;;;-5.10;99.90;;;;;;5046940;28;20225;-70
2022/02/07 04:00:05;;;;;;;0.80;0.80;;;-5.10;99.90;;;;;;5048151;28;20579;-70
2022/02/07 04:02:32;;;;;;;0.80;0.80;;;-5.10;99.90;;;;;;5024697;28;20197;-71
2022/02/07 04:05:17;;;;;;;0.90;0.90;;;-5.10;99.90;;;;;;5033339;28;20892;-71
2022/02/07 04:07:42;;;;;;;0.70;0.70;;;-5.00;99.90;;;;;;5044462;28;20216;-70
2022/02/07 04:10:08;;;;;;;0.80;0.80;;;-5.00;99.90;;;;;;5043741;28;20197;-70
2022/02/07 04:12:34;;;;;;;0.90;0.90;;;-4.90;99.90;;;;;;5047780;28;20194;-70
2022/02/07 04:15:01;;;;;;;0.90;0.90;;;-5.00;99.90;;;;;;5046886;28;20186;-70
2022/02/07 04:17:29;;;;;;;0.80;0.80;;;-5.10;99.90;;;;;;5045677;28;20205;-70
2022/02/07 04:19:59;;;;;;;0.80;0.80;;;-5.10;99.90;;;;;;5046923;28;20725;-70
2022/02/07 04:22:28;;;;;;;0.80;0.80;;;-5.00;99.90;;;;;;5048189;28;20208;-70
2022/02/07 04:24:54;;;;;;;0.83;0.83;;;-5.00;99.90;;;;;;5048356;28;20280;-71
2022/02/07 04:27:20;;;;;;;0.80;0.80;;;-4.80;99.90;;;;;;5047108;28;20206;-70
2022/02/07 04:29:46;;;;;;;0.85;0.85;;;-4.80;99.90;;;;;;5046471;28;20212;-70
2022/02/07 04:32:12;;;;;;;0.90;0.90;;;-4.80;99.90;;;;;;5047775;28;20203;-70
2022/02/07 04:34:39;;;;;;;0.70;0.70;;;-4.80;99.90;;;;;;5047699;28;20216;-70
2022/02/07 04:37:05;;;;;;;0.90;0.90;;;-4.90;99.90;;;;;;5045345;28;20202;-71
2022/02/07 04:39:31;;;;;;;0.80;0.80;;;-4.90;99.90;;;;;;5045268;28;20216;-70
2022/02/07 04:41:57;;;;;;;0.90;0.90;;;-4.90;99.90;;;;;;5047506;28;20567;-71
2022/02/07 04:44:33;;;;;;;0.80;0.80;;;-4.90;99.90;;;;;;5050539;28;20688;-70
2022/02/07 04:47:11;;;;;;;0.80;0.80;;;-4.90;99.90;;;;;;5029333;28;20285;-70
2022/02/07 04:59:41;;;;;;;0.73;0.73;;;-4.70;99.90;;;;;;5050959;28;20634;-70
2022/02/07 05:02:15;;;;;;;0.80;0.80;;;-4.70;99.90;;;;;;5050804;28;20247;-71
2022/02/07 05:04:48;;;;;;;0.82;0.82;;;-4.70;99.90;;;;;;5050151;28;20601;-71
2022/02/07 05:15:26;;;;;;;0.80;0.80;;;-4.80;99.90;;;;;;5051197;28;20282;-71
2022/02/07 05:17:52;;;;;;;0.80;0.80;;;-4.80;99.90;;;;;;5047980;28;20201;-71
2022/02/07 05:20:17;;;;;;;0.80;0.80;;;-4.80;99.90;;;;;;5048683;28;20205;-70
2022/02/07 05:22:43;;;;;;;0.83;0.83;;;-4.80;99.90;;;;;;5048583;28;20206;-70
2022/02/07 05:25:09;;;;;;;0.80;0.80;;;-4.80;99.90;;;;;;5030548;28;20210;-70
2022/02/07 05:27:35;;;;;;;0.95;0.95;;;-4.90;99.90;;;;;;5036350;28;20217;-70
2022/02/07 05:30:01;;;;;;;0.77;0.77;;;-5.00;99.90;;;;;;5050971;28;20254;-70
2022/02/07 05:32:28;;;;;;;0.77;0.77;;;-5.10;99.90;;;;;;5049691;28;20700;-69
2022/02/07 05:34:54;;;;;;;0.80;0.80;;;-5.00;99.90;;;;;;5048569;28;20205;-70
2022/02/07 05:37:21;;;;;;;0.80;0.80;;;-5.00;99.90;;;;;;5050789;28;20300;-70
2022/02/07 05:39:51;;;;;;;1.55;1.45;;;-4.90;99.90;;;;;;5047931;28;20296;-70
2022/02/07 05:42:17;;;;;;;0.80;0.80;;;-5.00;99.90;;;;;;5050746;28;20312;-69
2022/02/07 05:44:46;;;;;;;0.70;0.70;;;-5.00;99.90;;;;;;5050596;28;20672;-70
2022/02/07 05:47:12;;;;;;;0.87;0.87;;;-5.00;99.90;;;;;;5049747;28;20653;-71
2022/02/07 05:49:38;;;;;;;0.83;0.83;;;-5.10;99.90;;;;;;5049460;28;20206;-71
2022/02/07 05:52:04;;;;;;;0.80;0.80;;;-5.10;99.90;;;;;;5049975;28;20719;-71
2022/02/07 05:54:29;;;;;;;0.73;0.73;;;-5.10;99.90;;;;;;5050575;28;20197;-71
2022/02/07 05:56:55;;;;;;;0.90;0.90;;;-5.20;99.90;;;;;;5051147;28;20306;-71
2022/02/07 05:59:21;;;;;;;0.90;0.90;;;-5.20;99.90;;;;;;5051328;28;20221;-71
2022/02/07 06:01:46;;;;;;;0.80;0.80;;;-5.20;99.90;;;;;;5045871;28;20210;-71
2022/02/07 06:04:12;;;;;;;0.80;0.80;;;-5.10;99.90;;;;;;5031736;28;20202;-71
2022/02/07 06:06:38;;;;;;;0.70;0.70;;;-5.10;99.90;;;;;;5048818;28;20206;-71
2022/02/07 06:09:04;;;;;;;0.80;0.80;;;-5.10;99.90;;;;;;5046977;28;20209;-71
2022/02/07 06:11:29;;;;;;;0.80;0.80;;;-5.10;99.90;;;;;;5046050;28;20212;-72
2022/02/07 06:13:55;;;;;;;0.80;0.80;;;-5.10;99.90;;;;;;5049998;28;20201;-71
2022/02/07 06:16:21;;;;;;;0.80;0.80;;;-5.10;99.90;;;;;;5049891;28;20277;-71
2022/02/07 06:18:48;;;;;;;0.67;0.67;;;-5.20;99.90;;;;;;5042179;28;20199;-71
2022/02/07 06:21:15;;;;;;;0.80;0.80;;;-5.30;99.90;;;;;;5033268;28;20248;-71
2022/02/07 06:23:40;;;;;;;0.80;0.80;;;-5.30;99.90;;;;;;5040612;28;20239;-71
2022/02/07 06:26:06;;;;;;;0.80;0.80;;;-5.30;99.90;;;;;;5037064;28;20227;-71
2022/02/07 06:28:32;;;;;;;0.80;0.80;;;-5.30;99.90;;;;;;5027770;28;20205;-71
2022/02/07 06:30:58;;;;;;;0.77;0.77;;;-5.20;99.90;;;;;;5045171;28;20202;-70
2022/02/07 06:33:24;;;;;;;0.80;0.80;;;-5.20;99.90;;;;;;5038010;28;20661;-71
2022/02/07 06:35:50;;;;;;;0.80;0.80;;;-5.10;99.90;;;;;;5040094;28;20240;-71
2022/02/07 06:38:16;;;;;;;0.80;0.80;;;-5.10;99.90;;;;;;5023465;28;20215;-70
2022/02/07 06:40:41;;;;;;;0.70;0.70;;;-5.10;99.90;;;;;;5046991;28;20324;-71
2022/02/07 06:43:07;;;;;;;0.80;0.80;;;-5.10;99.90;;;;;;5032065;28;20213;-71
2022/02/07 06:45:33;;;;;;;0.80;0.80;;;-5.00;99.90;;;;;;5034582;28;20226;-71
2022/02/07 06:47:59;;;;;;;0.80;0.80;;;-5.00;99.90;;;;;;5049443;28;20247;-71
2022/02/07 06:50:25;;;;;;;0.87;0.87;;;-5.00;99.90;;;;;;5047859;28;20202;-71
2022/02/07 06:52:50;;;;;;;0.80;0.80;;;-5.00;99.90;;;;;;5017254;28;20186;-72
2022/02/07 06:55:16;;;;;;;0.70;0.70;;;-5.00;99.90;;;;;;5049120;28;20205;-71
2022/02/07 06:57:42;;;;;;;0.80;0.80;;;-5.10;99.90;;;;;;5025782;28;20249;-71
2022/02/07 07:00:10;;;;;;;0.80;0.80;;;-5.00;99.90;;;;;;5032492;28;20211;-72
2022/02/07 07:02:36;;;;;;;0.90;0.90;;;-5.00;99.90;;;;;;5030224;28;20209;-70
2022/02/07 07:05:09;;;;;;;0.80;0.80;;;-5.00;99.90;;;;;;5049967;28;20221;-71
2022/02/07 07:07:36;;;;;;;0.80;0.80;;;-5.10;99.90;;;;;;5031299;28;20276;-70
2022/02/07 07:10:06;;;;;;;0.80;0.80;;;-5.10;99.90;;;;;;5033527;28;20218;-70
2022/02/07 07:12:31;;;;;;;0.80;0.80;;;-5.10;99.90;;;;;;5031063;28;20253;-69
2022/02/07 07:15:11;;;;;;;0.80;0.80;;;-5.10;99.90;;;;;;5049138;28;20202;-74
2022/02/07 07:17:37;;;;;;;0.90;0.90;;;-4.90;99.90;;;;;;5031427;28;20213;-71
2022/02/07 07:20:05;;;;;;;0.80;0.80;;;-4.80;99.90;;;;;;5048749;28;20585;-70
2022/02/07 07:22:32;;;;;;;0.80;0.80;;;-4.80;99.90;;;;;;5031281;28;20681;-71
2022/02/07 07:24:59;;;;;;;0.80;0.80;;;-4.50;99.90;;;;;;5050023;28;20281;-70
2022/02/07 07:27:28;;;;;;;0.80;0.80;;;-4.40;99.90;;;;;;5029817;28;20214;-71
2022/02/07 07:29:54;;;;;;;0.80;0.80;;;-4.40;99.90;;;;;;5047535;28;20262;-71
2022/02/07 07:32:23;;;;;;;0.80;0.80;;;-4.40;99.90;;;;;;5032581;28;20209;-71
2022/02/07 07:34:49;;;;;;;0.80;0.80;;;-4.30;99.90;;;;;;5046412;28;20210;-71
2022/02/07 07:37:15;;;;;;;0.77;0.77;;;-4.00;99.90;;;;;;5033170;28;20265;-70
2022/02/07 07:39:42;;;;;;;2.50;1.57;;;-3.70;99.90;;;;;;5045758;28;20209;-70
2022/02/07 07:42:08;;;;;;;0.75;0.75;;;-3.40;99.90;;;;;;5025903;28;20206;-71
2022/02/07 07:44:36;;;;;;;0.80;0.80;;;-3.20;99.90;;;;;;5046471;28;20209;-70
2022/02/07 07:47:09;;;;;;;0.73;0.73;;;-3.00;99.90;;;;;;5034740;28;20217;-71
2022/02/07 07:49:46;;;;;;;0.80;0.80;;;-2.60;99.90;;;;;;5043030;28;20209;-71
2022/02/07 07:52:16;;;;;;;0.73;0.73;;;-2.30;99.90;;;;;;5033450;28;20193;-70
2022/02/07 07:55:23;;;;;;;0.80;0.80;;;-2.10;99.90;;;;;;5040802;28;20201;-71
2022/02/07 08:03:14;;;;;;;0.70;0.70;;;-1.50;99.90;;;;;;5046979;28;20767;-70
2022/02/07 08:05:55;;;;;;;0.80;0.80;;;-1.50;99.90;;;;;;5046754;28;20210;-71
2022/02/07 08:11:08;;;;;;;0.73;0.73;;;-1.40;99.90;;;;;;5035197;28;20578;-71
2022/02/07 08:13:34;;;;;;;0.73;0.73;;;-1.30;99.90;;;;;;5047889;28;20201;-70
2022/02/07 08:16:00;;;;;;;0.63;0.63;;;-1.30;99.90;;;;;;5046153;28;20194;-72
2022/02/07 08:18:26;;;;;;;0.70;0.70;;;-1.40;99.90;;;;;;5045421;28;20293;-71
2022/02/07 08:20:52;;;;;;;0.70;0.70;;;-1.40;99.90;;;;;;5048272;28;20239;-71
2022/02/07 08:23:18;;;;;;;0.70;0.70;;;-1.40;99.90;;;;;;5049115;28;20201;-71
2022/02/07 08:25:44;;;;;;;0.80;0.80;;;-1.40;99.90;;;;;;5049338;28;20213;-71
2022/02/07 08:28:09;;;;;;;0.75;0.75;;;-1.40;99.90;;;;;;5048210;28;20252;-70
2022/02/07 08:30:35;;;;;;;0.70;0.70;;;-1.40;99.90;;;;;;5045551;28;20208;-70
2022/02/07 08:33:03;;;;;;;0.75;0.75;;;-1.30;99.90;;;;;;5046748;28;20189;-72
2022/02/07 08:35:29;;;;;;;0.85;0.85;;;-1.20;99.90;;;;;;5044163;28;20701;-72
2022/02/07 08:37:56;;;;;;;0.70;0.70;;;-1.30;99.90;;;;;;5047754;28;20209;-71
2022/02/07 08:40:23;;;;;;;0.80;0.80;;;-1.20;99.90;;;;;;5047324;28;20219;-71
2022/02/07 08:42:49;;;;;;;2.85;1.95;;;-1.20;99.90;;;;;;5046443;28;20326;-71
2022/02/07 08:45:15;;;;;;;0.70;0.70;;;-1.00;99.90;;;;;;5047842;28;20313;-71
2022/02/07 08:47:42;;;;;;;0.70;0.70;;;-0.80;99.90;;;;;;5046446;28;20676;-72
2022/02/07 08:50:10;;;;;;;0.68;0.68;;;-0.70;99.90;;;;;;5045532;28;20209;-71
2022/02/07 08:52:40;;;;;;;0.70;0.70;;;-0.60;99.90;;;;;;5039936;28;20715;-70
2022/02/07 08:55:07;;;;;;;0.65;0.65;;;-0.40;99.90;;;;;;5047588;28;20288;-71
2022/02/07 08:57:38;;;;;;;0.55;0.55;;;-0.10;99.90;;;;;;5047217;28;20221;-71
2022/02/07 09:05:44;;;;;;;0.65;0.65;;;0.30;99.90;;;;;;5044558;28;20216;-71
2022/02/07 09:07:50;;;;;;;0.70;0.70;;;0.50;99.90;;;;;;5046973;28;20218;-72
2022/02/07 09:10:16;;;;;;;0.60;0.60;;;0.70;99.90;;;;;;5041424;28;20197;-71
2022/02/07 09:12:44;;;;;;;0.70;0.70;;;0.80;99.90;;;;;;5046221;28;20239;-71
2022/02/07 09:15:32;;;;;;;0.60;0.60;;;1.00;99.90;;;;;;5047408;28;20255;-72
2022/02/07 09:18:04;;;;;;;0.70;0.70;;;1.20;99.90;;;;;;5043830;28;20256;-71
2022/02/07 09:20:31;;;;;;;0.70;0.70;;;1.20;99.90;;;;;;5046131;28;20266;-72
2022/02/07 09:22:57;;;;;;;0.70;0.70;;;1.30;99.90;;;;;;5045034;28;20197;-71
2022/02/07 09:25:23;;;;;;;0.63;0.63;;;1.40;99.90;;;;;;5047233;28;20606;-71
2022/02/07 09:27:49;;;;;;;1.20;1.17;;;1.50;99.90;;;;;;5049169;28;20206;-71
2022/02/07 09:30:15;;;;;;;0.60;0.60;;;1.60;99.90;;;;;;5049995;28;20237;-72
2022/02/07 09:32:40;;;;;;;0.70;0.70;;;1.70;99.90;;;;;;5050399;28;20568;-72
2022/02/07 09:35:06;;;;;;;0.60;0.60;;;1.80;99.90;;;;;;5033239;28;20194;-72
2022/02/07 09:37:32;;;;;;;0.70;0.70;;;1.90;99.90;;;;;;5051286;28;20645;-72
2022/02/07 09:39:58;;;;;;;0.52;0.52;;;2.10;99.90;;;;;;5051094;28;20244;-72
2022/02/07 09:42:25;;;;;;;0.50;0.50;;;2.20;99.90;;;;;;5051446;28;20237;-72
2022/02/07 09:44:54;;;;;;;0.57;0.57;;;2.40;99.90;;;;;;5047904;28;20213;-73
2022/02/07 09:47:20;;;;;;;0.60;0.60;;;2.50;99.90;;;;;;5045131;28;20198;-72
2022/02/07 09:49:47;;;;;;;0.50;0.50;;;2.60;99.90;;;;;;5048400;28;20676;-71
2022/02/07 09:52:13;;;;;;;0.57;0.57;;;2.70;99.90;;;;;;5050619;28;20675;-71
2022/02/07 09:54:40;;;;;;;0.65;0.65;;;2.80;99.90;;;;;;5049072;28;20241;-72
2022/02/07 09:57:07;;;;;;;0.60;0.60;;;3.00;99.90;;;;;;5047820;28;20316;-73
2022/02/07 09:59:34;;;;;;;0.70;0.70;;;3.10;99.90;;;;;;5050270;28;20201;-72
2022/02/07 10:02:06;;;;;;;0.60;0.60;;;3.10;99.90;;;;;;5049349;28;20372;-72
2022/02/07 10:04:39;;;;;;;0.80;0.80;;;3.20;99.90;;;;;;5049125;28;20205;-71
2022/02/07 10:09:52;;;;;;;0.60;0.60;;;3.30;99.90;;;;;;5043406;28;20245;-71
2022/02/07 10:44:49;;;;;;;0.50;0.50;;;4.30;99.90;;;;;;5040746;28;20287;-72
2022/02/07 10:50:12;;;;;;;0.55;0.55;;;4.30;99.90;;;;;;5049923;28;20780;-73
2022/02/07 10:52:56;;;;;;;0.68;0.68;;;4.40;99.90;;;;;;5048501;28;20196;-72
2022/02/07 10:55:25;;;;;;;0.70;0.70;;;4.50;99.90;;;;;;5048397;28;20201;-72
2022/02/07 10:57:52;;;;;;;0.60;0.60;;;4.60;99.90;;;;;;5044949;28;20223;-73
2022/02/07 11:00:29;;;;;;;0.60;0.60;;;4.60;99.90;;;;;;5046892;28;20715;-73
2022/02/07 11:05:37;;;;;;;0.60;0.60;;;4.60;99.90;;;;;;5036810;28;20291;-72
2022/02/07 11:08:19;;;;;;;0.60;0.60;;;4.60;99.90;;;;;;5045937;28;20578;-73
2022/02/07 11:17:01;;;;;;;0.70;0.70;;;4.80;99.90;;;;;;5048111;28;20208;-72
2022/02/07 11:21:42;;;;;;;0.60;0.60;;;4.90;99.90;;;;;;5038864;28;20272;-73
2022/02/07 11:24:25;;;;;;;0.55;0.55;;;4.90;99.90;;;;;;5041910;28;20197;-73
2022/02/07 11:26:51;;;;;;;0.70;0.70;;;4.90;99.90;;;;;;5047657;28;20622;-73
2022/02/07 11:29:38;;;;;;;0.70;0.70;;;5.00;99.90;;;;;;5048732;28;20202;-73
2022/02/07 11:32:05;;;;;;;0.70;0.70;;;5.10;99.90;;;;;;5046656;28;20198;-72
2022/02/07 11:34:43;;;;;;;0.52;0.52;;;5.10;99.90;;;;;;5048518;28;20289;-74
2022/02/07 11:37:21;;;;;;;0.60;0.60;;;5.20;99.90;;;;;;5047482;28;20205;-73
2022/02/07 11:39:50;;;;;;;0.60;0.60;;;5.30;99.90;;;;;;5043538;28;20683;-73
2022/02/07 11:42:16;;;;;;;0.70;0.70;;;5.40;99.90;;;;;;5040189;28;20244;-73
2022/02/07 11:44:45;;;;;;;0.60;0.60;;;5.40;99.90;;;;;;5047305;28;20748;-72
2022/02/07 11:47:17;;;;;;;0.60;0.60;;;5.50;99.90;;;;;;5047261;28;20213;-73
2022/02/07 11:49:48;;;;;;;0.60;0.60;;;5.60;99.90;;;;;;5047144;28;20206;-73
2022/02/07 11:52:41;;;;;;;0.63;0.63;;;5.70;99.90;;;;;;5044223;28;20209;-73
2022/02/07 11:55:16;;;;;;;0.50;0.50;;;5.50;99.90;;;;;;5045433;28;20292;-73
2022/02/07 11:58:01;;;;;;;0.70;0.70;;;5.30;99.90;;;;;;5046674;28;20228;-73
2022/02/07 12:00:33;;;;;;;0.50;0.50;;;5.20;99.90;;;;;;5046775;28;20212;-72
2022/02/07 12:03:05;;;;;;;0.80;0.80;;;5.30;99.90;;;;;;5048131;28;20677;-74
2022/02/07 12:05:34;;;;;;;0.60;0.60;;;5.50;99.90;;;;;;5047096;28;20237;-74
2022/02/07 12:08:13;;;;;;;0.50;0.50;;;5.50;99.90;;;;;;5036039;28;20206;-74
2022/02/07 12:11:05;;;;;;;0.70;0.70;;;5.50;99.90;;;;;;5033895;28;20260;-73
2022/02/07 12:13:41;;;;;;;0.60;0.60;;;5.50;99.90;;;;;;5045804;28;20202;-73
2022/02/07 12:16:17;;;;;;;0.60;0.60;;;5.40;99.90;;;;;;5046915;28;20358;-74
2022/02/07 12:18:58;;;;;;;0.70;0.70;;;5.30;99.90;;;;;;5032198;28;20201;-73
2022/02/07 12:21:26;;;;;;;0.60;0.60;;;5.10;99.90;;;;;;5047230;28;20201;-74
2022/02/07 12:24:00;;;;;;;0.60;0.60;;;4.90;99.90;;;;;;5046963;28;20205;-73
2022/02/07 12:26:27;;;;;;;0.60;0.60;;;4.90;99.90;;;;;;5031737;28;20205;-73
2022/02/07 12:29:02;;;;;;;0.60;0.60;;;4.80;99.90;;;;;;5045323;28;20622;-73
2022/02/07 12:31:29;;;;;;;0.63;0.63;;;4.70;99.90;;;;;;5044283;28;20201;-73
2022/02/07 12:34:03;;;;;;;0.60;0.60;;;4.70;99.90;;;;;;5047967;28;20205;-72
2022/02/07 12:36:36;;;;;;;0.47;0.47;;;4.80;99.90;;;;;;5039030;28;20255;-73
2022/02/07 12:39:14;;;;;;;0.60;0.60;;;4.80;99.90;;;;;;5043433;28;20259;-73
2022/02/07 12:41:41;;;;;;;0.70;0.70;;;5.10;99.90;;;;;;5045320;28;20224;-72
2022/02/07 12:44:09;;;;;;;0.70;0.70;;;5.20;99.90;;;;;;5046821;28;20227;-73
2022/02/07 12:46:44;;;;;;;0.60;0.60;;;5.30;99.90;;;;;;5046611;28;20197;-73
2022/02/07 12:49:13;;;;;;;0.60;0.60;;;5.30;99.90;;;;;;5046743;28;20330;-73
2022/02/07 12:51:46;;;;;;;0.50;0.50;;;5.50;99.90;;;;;;5045832;28;20614;-73
2022/02/07 12:54:13;;;;;;;0.60;0.60;;;5.50;99.90;;;;;;5047724;28;20224;-72
2022/02/07 12:56:39;;;;;;;0.50;0.50;;;5.30;99.90;;;;;;5034907;28;20233;-73
2022/02/07 12:59:06;;;;;;;0.50;0.50;;;5.10;99.90;;;;;;5040202;28;20201;-73
2022/02/07 13:01:35;;;;;;;0.50;0.50;;;5.10;99.90;;;;;;5038208;28;20578;-73
2022/02/07 13:04:05;;;;;;;0.75;0.75;;;5.00;99.90;;;;;;5043686;28;20251;-73
2022/02/07 13:06:43;;;;;;;0.55;0.55;;;4.80;99.90;;;;;;5030999;28;20253;-72
2022/02/07 13:09:21;;;;;;;0.70;0.70;;;4.60;99.90;;;;;;5035850;28;20206;-72
2022/02/07 13:11:49;;;;;;;0.60;0.60;;;4.50;99.90;;;;;;5035040;28;20594;-72
2022/02/07 13:14:18;;;;;;;0.50;0.50;;;4.50;99.90;;;;;;5046429;28;20201;-72
2022/02/07 13:16:45;;;;;;;0.57;0.57;;;4.50;99.90;;;;;;5040489;28;20297;-72
2022/02/07 13:19:14;;;;;;;0.63;0.63;;;4.30;99.90;;;;;;5044813;28;20696;-72
2022/02/07 13:21:44;;;;;;;0.60;0.60;;;4.20;99.90;;;;;;5038431;28;20289;-72
2022/02/07 13:24:13;;;;;;;0.60;0.60;;;4.20;99.90;;;;;;5034815;28;20202;-72
2022/02/07 13:26:44;;;;;;;0.60;0.60;;;4.10;99.90;;;;;;5032308;28;20585;-71
2022/02/07 13:29:22;;;;;;;0.63;0.63;;;4.10;99.90;;;;;;5045503;28;20201;-72
2022/02/07 13:32:00;;;;;;;0.60;0.60;;;4.00;99.90;;;;;;5038578;28;20205;-72
2022/02/07 13:34:28;;;;;;;0.50;0.50;;;4.10;99.90;;;;;;5037986;28;20198;-72
2022/02/07 13:37:08;;;;;;;0.60;0.60;;;4.00;99.90;;;;;;5034639;28;20575;-72
2022/02/07 13:39:52;;;;;;;0.50;0.50;;;4.00;99.90;;;;;;5046617;28;20198;-72
2022/02/07 13:42:24;;;;;;;0.68;0.68;;;4.00;99.90;;;;;;5035288;28;20284;-73
2022/02/07 13:44:49;;;;;;;0.60;0.60;;;4.00;99.90;;;;;;5050675;28;20225;-71
2022/02/07 13:47:15;;;;;;;0.70;0.70;;;4.00;99.90;;;;;;5034500;28;20241;-72
2022/02/07 13:50:01;;;;;;;0.60;0.60;;;3.90;99.90;;;;;;5048222;28;20255;-72
2022/02/07 13:52:33;;;;;;;0.50;0.50;;;3.80;99.90;;;;;;5047505;28;20726;-71
2022/02/07 13:55:22;;;;;;;0.70;0.70;;;3.80;99.90;;;;;;5050801;28;20235;-72
2022/02/07 13:57:49;;;;;;;0.57;0.57;;;3.80;99.90;;;;;;5016373;28;20222;-71
2022/02/07 14:00:15;;;;;;;0.70;0.70;;;3.90;99.90;;;;;;5051966;28;20193;-71
2022/02/07 14:02:41;;;;;;;0.60;0.60;;;3.90;99.90;;;;;;5015443;28;20737;-72
2022/02/07 14:05:07;;;;;;;0.60;0.60;;;3.90;99.90;;;;;;5051658;28;20289;-71
2022/02/07 14:07:49;;;;;;;0.52;0.52;;;3.90;99.90;;;;;;5032847;28;20276;-71
2022/02/07 14:10:20;;;;;;;0.60;0.60;;;3.90;99.90;;;;;;5041655;28;20277;-71
2022/02/07 14:12:47;;;;;;;0.60;0.60;;;3.90;99.90;;;;;;5031754;28;20706;-71
2022/02/07 14:15:13;;;;;;;0.60;0.60;;;3.90;99.90;;;;;;5050350;28;20244;-71
2022/02/07 14:17:44;;;;;;;0.50;0.50;;;3.80;99.90;;;;;;5033178;28;20282;-72
2022/02/07 14:20:13;;;;;;;0.50;0.50;;;3.70;99.90;;;;;;5050733;28;20426;-72
2022/02/07 14:22:38;;;;;;;0.60;0.60;;;3.70;99.90;;;;;;5032170;28;20217;-71
2022/02/07 14:25:06;;;;;;;0.57;0.57;;;3.70;99.90;;;;;;5051633;28;20214;-71
2022/02/07 14:27:32;;;;;;;0.60;0.60;;;3.70;99.90;;;;;;5048922;28;20224;-71
2022/02/07 14:29:58;;;;;;;0.60;0.60;;;3.60;99.90;;;;;;5050225;28;20684;-72
2022/02/07 14:32:24;;;;;;;0.65;0.65;;;3.60;99.90;;;;;;5042563;28;20198;-71
2022/02/07 14:34:50;;;;;;;0.60;0.60;;;3.60;99.90;;;;;;5046519;28;20489;-71
2022/02/07 14:37:16;;;;;;;1.02;1.02;;;3.50;99.90;;;;;;5048714;28;20296;-71
2022/02/07 14:39:41;;;;;;;0.70;0.70;;;3.50;99.90;;;;;;5046701;28;20565;-71
2022/02/07 14:42:08;;;;;;;0.70;0.70;;;3.50;99.90;;;;;;5048698;28;20736;-71
2022/02/07 14:44:43;;;;;;;0.50;0.50;;;3.50;99.90;;;;;;5042016;28;20198;-70
2022/02/07 14:47:15;;;;;;;0.57;0.57;;;3.60;99.90;;;;;;5042079;28;20205;-71
2022/02/07 14:49:41;;;;;;;0.60;0.60;;;3.50;99.90;;;;;;5049519;28;20205;-71
2022/02/07 14:52:07;;;;;;;0.60;0.60;;;3.50;99.90;;;;;;5046131;28;20288;-71
2022/02/07 14:54:32;;;;;;;0.60;0.60;;;3.30;99.90;;;;;;5048227;28;20251;-71
2022/02/07 14:57:01;;;;;;;0.60;0.60;;;3.30;99.90;;;;;;5048330;28;20602;-71
2022/02/07 14:59:27;;;;;;;0.60;0.60;;;3.20;99.90;;;;;;5048248;28;20224;-71
2022/02/07 15:01:53;;;;;;;0.70;0.70;;;3.20;99.90;;;;;;5047972;28;20202;-71
2022/02/07 15:04:22;;;;;;;0.68;0.68;;;3.10;99.90;;;;;;5049331;28;20276;-71
2022/02/07 15:06:48;;;;;;;0.60;0.60;;;3.10;99.90;;;;;;5047968;28;20688;-71
2022/02/07 15:09:13;;;;;;;0.43;0.43;;;3.00;99.90;;;;;;5047899;28;20211;-70
2022/02/07 15:11:39;;;;;;;0.60;0.60;;;3.00;99.90;;;;;;5032819;28;20214;-71
2022/02/07 15:14:05;;;;;;;0.50;0.50;;;3.10;99.90;;;;;;5049935;28;20210;-70
2022/02/07 15:16:31;;;;;;;0.50;0.50;;;3.20;99.90;;;;;;5050417;28;20210;-71
2022/02/07 15:18:56;;;;;;;0.65;0.65;;;3.10;99.90;;;;;;5045924;28;20194;-71
2022/02/07 15:21:27;;;;;;;0.70;0.70;;;2.70;99.90;;;;;;5048617;28;20201;-71
2022/02/07 15:23:53;;;;;;;0.43;0.43;;;2.60;99.90;;;;;;5039633;28;20247;-71
2022/02/07 15:26:22;;;;;;;0.60;0.60;;;2.50;99.90;;;;;;5047608;28;20294;-71
2022/02/07 15:28:49;;;;;;;0.55;0.55;;;2.40;99.90;;;;;;5048748;28;20216;-71
2022/02/07 15:31:16;;;;;;;0.55;0.55;;;2.40;99.90;;;;;;5048224;28;20693;-71
2022/02/07 15:33:43;;;;;;;0.60;0.60;;;2.20;99.90;;;;;;5034717;28;20658;-71
2022/02/07 15:36:10;;;;;;;0.60;0.60;;;2.00;99.90;;;;;;5044049;28;20211;-71